createdAt,value
2022-08-26T00:01:11.621Z,23.59
2022-08-26T00:03:39.229Z,23.58
2022-08-26T00:06:07.106Z,23.53
2022-08-26T00:08:35.576Z,23.50
2022-08-26T00:11:04.956Z,23.46
2022-08-26T00:13:32.947Z,23.46
2022-08-26T00:16:00.078Z,23.39
2022-08-26T00:18:27.315Z,23.29
2022-08-26T00:20:57.485Z,23.18
2022-08-26T00:23:24.062Z,23.02
2022-08-26T00:25:51.522Z,22.88
2022-08-26T00:28:18.976Z,22.79
2022-08-26T00:30:49.182Z,22.65
2022-08-26T00:33:20.112Z,22.64
2022-08-26T00:35:47.630Z,22.48
2022-08-26T00:38:14.863Z,22.41
2022-08-26T00:40:48.095Z,22.39
2022-08-26T00:43:15.979Z,22.27
2022-08-26T00:45:56.810Z,22.11
2022-08-26T00:48:25.665Z,22.15
2022-08-26T00:51:03.211Z,22.23
2022-08-26T00:53:35.883Z,22.22
2022-08-26T00:56:09.920Z,22.22
2022-08-26T00:58:42.975Z,22.23
2022-08-26T01:01:11.589Z,22.26
2022-08-26T01:03:41.769Z,22.17
2022-08-26T01:06:11.485Z,22.09
2022-08-26T01:08:39.980Z,22.07
2022-08-26T01:11:06.898Z,21.98
2022-08-26T01:13:36.879Z,21.86
2022-08-26T01:16:06.170Z,21.68
2022-08-26T01:18:33.322Z,21.50
2022-08-26T01:21:24.869Z,21.48
2022-08-26T01:23:57.555Z,21.48
2022-08-26T01:26:32.886Z,21.48
2022-08-26T01:29:03.063Z,21.39
2022-08-26T01:31:36.575Z,21.51
2022-08-26T01:34:18.779Z,21.65
2022-08-26T01:36:51.609Z,21.74
2022-08-26T01:39:19.228Z,21.70
2022-08-26T01:41:47.406Z,21.64
2022-08-26T01:44:22.517Z,21.64
2022-08-26T01:46:50.745Z,21.65
2022-08-26T01:49:18.766Z,21.70
2022-08-26T01:51:48.004Z,21.64
2022-08-26T01:54:15.960Z,21.62
2022-08-26T01:56:42.843Z,21.56
2022-08-26T01:59:14.796Z,21.44
2022-08-26T02:01:41.529Z,21.42
2022-08-26T02:04:33.819Z,21.49
2022-08-26T02:07:04.659Z,21.54
2022-08-26T02:09:31.454Z,21.65
2022-08-26T02:12:01.003Z,21.57
2022-08-26T02:14:37.117Z,21.51
2022-08-26T02:17:10.855Z,21.36
2022-08-26T02:19:41.187Z,21.29
2022-08-26T02:22:14.934Z,21.23
2022-08-26T02:24:58.425Z,21.27
2022-08-26T02:27:32.361Z,21.22
2022-08-26T02:30:14.738Z,21.23
2022-08-26T02:32:44.434Z,21.36
2022-08-26T02:35:13.676Z,21.36
2022-08-26T02:37:44.954Z,21.34
2022-08-26T02:40:14.449Z,21.30
2022-08-26T02:42:41.331Z,21.31
2022-08-26T02:45:10.845Z,21.41
2022-08-26T02:47:37.414Z,21.49
2022-08-26T02:50:04.639Z,21.49
2022-08-26T02:52:31.032Z,21.45
2022-08-26T02:54:58.765Z,21.30
2022-08-26T02:57:26.053Z,21.15
2022-08-26T02:59:52.723Z,20.90
2022-08-26T03:02:19.305Z,21.07
2022-08-26T03:04:57.975Z,21.14
2022-08-26T03:07:29.106Z,21.17
2022-08-26T03:09:56.819Z,21.28
2022-08-26T03:12:23.956Z,21.36
2022-08-26T03:14:52.311Z,21.38
2022-08-26T03:17:18.735Z,21.45
2022-08-26T03:19:45.121Z,21.45
2022-08-26T03:22:11.990Z,21.43
2022-08-26T03:24:41.097Z,21.53
2022-08-26T03:27:10.835Z,21.42
2022-08-26T03:29:57.207Z,21.10
2022-08-26T03:32:23.844Z,21.08
2022-08-26T03:34:53.378Z,21.17
2022-08-26T03:37:20.835Z,21.20
2022-08-26T03:39:47.706Z,21.18
2022-08-26T03:42:14.932Z,21.09
2022-08-26T03:44:42.243Z,20.98
2022-08-26T03:47:09.263Z,21.03
2022-08-26T03:49:35.960Z,20.91
2022-08-26T03:52:03.993Z,20.97
2022-08-26T03:54:30.643Z,20.86
2022-08-26T03:56:57.064Z,20.85
2022-08-26T03:59:23.464Z,20.89
2022-08-26T04:01:52.169Z,20.86
2022-08-26T04:04:18.733Z,20.84
2022-08-26T04:06:50.156Z,20.94
2022-08-26T04:09:20.905Z,21.07
2022-08-26T04:11:50.590Z,21.15
2022-08-26T04:14:20.759Z,21.14
2022-08-26T04:16:48.200Z,20.85
2022-08-26T04:19:15.630Z,20.80
2022-08-26T04:21:42.796Z,20.96
2022-08-26T04:24:12.049Z,21.08
2022-08-26T04:26:42.842Z,20.98
2022-08-26T04:29:16.307Z,21.03
2022-08-26T04:31:42.852Z,21.09
2022-08-26T04:34:10.869Z,21.07
2022-08-26T04:36:37.756Z,21.13
2022-08-26T04:39:05.374Z,21.13
2022-08-26T04:41:32.515Z,21.18
2022-08-26T04:43:58.948Z,21.02
2022-08-26T04:46:25.940Z,21.07
2022-08-26T04:48:53.696Z,20.97
2022-08-26T04:51:27.223Z,21.05
2022-08-26T04:53:58.954Z,21.14
2022-08-26T04:56:32.558Z,21.19
2022-08-26T04:59:00.846Z,21.25
2022-08-26T05:01:27.388Z,21.22
2022-08-26T05:03:54.760Z,21.30
2022-08-26T05:06:21.266Z,21.36
2022-08-26T05:08:48.520Z,21.43
2022-08-26T05:11:15.330Z,21.47
2022-08-26T05:13:41.869Z,21.48
2022-08-26T05:16:11.757Z,21.55
2022-08-26T05:18:39.499Z,21.48
2022-08-26T05:21:06.859Z,21.49
2022-08-26T05:23:35.562Z,21.19
2022-08-26T05:26:02.076Z,21.19
2022-08-26T05:28:31.546Z,21.29
2022-08-26T05:30:58.700Z,21.31
2022-08-26T05:33:25.321Z,21.35
2022-08-26T05:35:51.869Z,21.14
2022-08-26T05:38:20.748Z,21.15
2022-08-26T05:40:52.556Z,21.17
2022-08-26T05:43:20.488Z,21.20
2022-08-26T05:45:49.272Z,21.22
2022-08-26T05:48:22.846Z,21.14
2022-08-26T05:50:53.393Z,21.04
2022-08-26T05:53:22.207Z,21.06
2022-08-26T05:55:52.508Z,21.04
2022-08-26T05:58:21.646Z,20.91
2022-08-26T06:01:01.954Z,20.95
2022-08-26T06:03:31.621Z,20.72
2022-08-26T06:05:58.325Z,20.52
2022-08-26T06:08:25.054Z,20.67
2022-08-26T06:10:59.326Z,20.64
2022-08-26T06:13:27.396Z,20.72
2022-08-26T06:15:59.120Z,20.89
2022-08-26T06:18:32.601Z,20.99
2022-08-26T06:20:59.530Z,21.14
2022-08-26T06:23:47.575Z,21.26
2022-08-26T06:26:16.066Z,21.26
2022-08-26T06:28:45.479Z,21.30
2022-08-26T06:31:13.194Z,21.24
2022-08-26T06:33:39.760Z,21.14
2022-08-26T06:36:06.780Z,21.03
2022-08-26T06:38:33.868Z,21.08
2022-08-26T06:41:03.012Z,21.03
2022-08-26T06:43:29.660Z,20.98
2022-08-26T06:46:05.344Z,20.91
2022-08-26T06:48:32.140Z,21.05
2022-08-26T06:51:04.464Z,21.17
2022-08-26T06:53:30.927Z,21.20
2022-08-26T06:55:57.352Z,21.18
2022-08-26T06:58:23.874Z,21.30
2022-08-26T07:00:51.066Z,21.35
2022-08-26T07:03:18.131Z,21.49
2022-08-26T07:05:44.697Z,21.67
2022-08-26T07:08:12.049Z,21.70
2022-08-26T07:10:38.689Z,21.81
2022-08-26T07:13:05.907Z,21.98
2022-08-26T07:15:36.070Z,22.24
2022-08-26T07:18:02.980Z,22.41
2022-08-26T07:20:29.499Z,22.61
2022-08-26T07:22:56.105Z,22.70
2022-08-26T07:25:22.572Z,22.91
2022-08-26T07:27:54.264Z,22.92
2022-08-26T07:30:21.146Z,23.01
2022-08-26T07:32:48.229Z,23.00
2022-08-26T07:35:14.803Z,23.16
2022-08-26T07:37:42.240Z,23.11
2022-08-26T07:40:09.455Z,23.28
2022-08-26T07:42:36.139Z,23.44
2022-08-26T07:45:02.648Z,23.46
2022-08-26T07:47:29.254Z,23.44
2022-08-26T07:49:57.440Z,23.46
2022-08-26T07:52:27.178Z,23.59
2022-08-26T07:54:55.486Z,23.72
2022-08-26T07:57:21.956Z,23.51
2022-08-26T07:59:50.861Z,23.54
2022-08-26T08:02:17.349Z,23.64
2022-08-26T08:04:43.854Z,23.74
2022-08-26T08:07:11.615Z,23.64
2022-08-26T08:09:38.489Z,23.51
2022-08-26T08:12:07.540Z,23.66
2022-08-26T08:14:36.473Z,23.77
2022-08-26T08:17:04.260Z,23.70
2022-08-26T08:19:36.941Z,23.46
2022-08-26T08:22:17.019Z,23.63
2022-08-26T08:24:44.320Z,23.85
2022-08-26T08:27:10.795Z,24.02
2022-08-26T08:29:37.803Z,24.07
2022-08-26T08:32:04.971Z,24.39
2022-08-26T08:34:32.162Z,24.73
2022-08-26T08:36:59.401Z,24.88
2022-08-26T08:39:26.940Z,25.03
2022-08-26T08:42:23.576Z,24.58
2022-08-26T08:44:54.189Z,24.27
2022-08-26T08:47:31.924Z,24.50
2022-08-26T08:50:03.534Z,24.78
2022-08-26T08:52:37.282Z,25.08
2022-08-26T08:55:05.840Z,25.21
2022-08-26T08:58:15.804Z,25.42
2022-08-26T09:00:54.071Z,25.39
2022-08-26T09:03:42.546Z,25.79
2022-08-26T09:06:17.027Z,25.98
2022-08-26T09:08:47.262Z,26.63
2022-08-26T09:11:18.778Z,27.39
2022-08-26T09:13:51.212Z,27.88
2022-08-26T09:16:40.976Z,28.76
2022-08-26T09:19:37.055Z,29.28
2022-08-26T09:22:08.810Z,29.73
2022-08-26T09:24:41.652Z,29.49
2022-08-26T09:27:08.718Z,29.71
2022-08-26T09:29:44.154Z,30.11
2022-08-26T09:32:24.142Z,30.52
2022-08-26T09:35:00.428Z,30.93
2022-08-26T09:37:40.049Z,31.26
2022-08-26T09:40:27.648Z,31.05
2022-08-26T09:43:22.812Z,31.33
2022-08-26T09:45:58.411Z,31.52
2022-08-26T09:48:31.867Z,31.99
2022-08-26T09:51:05.656Z,31.72
2022-08-26T09:54:00.012Z,32.03
2022-08-26T09:56:28.550Z,31.86
2022-08-26T09:58:56.586Z,31.75
2022-08-26T10:01:22.962Z,31.45
2022-08-26T10:03:51.372Z,30.50
2022-08-26T10:06:17.836Z,30.55
2022-08-26T10:08:51.253Z,30.31
2022-08-26T10:11:42.276Z,30.26
2022-08-26T10:14:29.956Z,29.95
2022-08-26T10:17:05.347Z,30.02
2022-08-26T10:19:56.626Z,29.63
2022-08-26T10:23:00.891Z,29.63
2022-08-26T10:25:59.095Z,29.94
2022-08-26T10:28:50.258Z,30.08
2022-08-26T10:31:29.216Z,30.13
2022-08-26T10:33:58.848Z,30.09
2022-08-26T10:37:10.595Z,30.26
2022-08-26T10:39:47.016Z,30.23
2022-08-26T10:42:28.816Z,30.33
2022-08-26T10:45:00.792Z,30.27
2022-08-26T10:47:43.319Z,30.08
2022-08-26T10:50:10.741Z,30.21
2022-08-26T10:53:00.295Z,30.14
2022-08-26T10:55:36.419Z,30.03
2022-08-26T10:58:31.828Z,30.26
2022-08-26T11:01:27.901Z,30.29
2022-08-26T11:04:22.846Z,30.37
2022-08-26T11:06:49.736Z,30.41
2022-08-26T11:09:44.836Z,30.86
2022-08-26T11:12:49.157Z,31.06
2022-08-26T11:15:24.542Z,31.36
2022-08-26T11:17:51.307Z,31.67
2022-08-26T11:20:29.984Z,31.88
2022-08-26T11:23:16.936Z,32.08
2022-08-26T11:26:01.560Z,32.22
2022-08-26T11:28:46.061Z,31.94
2022-08-26T11:31:25.832Z,32.04
2022-08-26T11:33:56.673Z,32.24
2022-08-26T11:37:03.346Z,32.36
2022-08-26T11:39:36.603Z,31.88
2022-08-26T11:42:20.262Z,31.84
2022-08-26T11:44:49.371Z,31.64
2022-08-26T11:47:25.057Z,31.51
2022-08-26T11:50:06.424Z,31.43
2022-08-26T11:52:32.840Z,31.07
2022-08-26T11:55:04.021Z,31.52
2022-08-26T11:57:33.744Z,31.93
2022-08-26T12:00:01.336Z,31.84
2022-08-26T12:02:28.477Z,31.62
2022-08-26T12:04:56.345Z,31.51
2022-08-26T12:07:27.791Z,31.65
2022-08-26T12:09:55.217Z,31.82
2022-08-26T12:12:35.060Z,31.81
2022-08-26T12:15:11.518Z,32.02
2022-08-26T12:17:39.873Z,32.08
2022-08-26T12:20:30.481Z,32.00
2022-08-26T12:23:00.082Z,32.07
2022-08-26T12:25:28.034Z,31.82
2022-08-26T12:28:05.519Z,31.85
2022-08-26T12:30:32.040Z,31.73
2022-08-26T12:33:17.999Z,31.84
2022-08-26T12:35:54.298Z,31.77
2022-08-26T12:38:23.738Z,31.70
2022-08-26T12:40:50.369Z,31.77
2022-08-26T12:43:40.942Z,31.92
2022-08-26T12:46:11.196Z,32.14
2022-08-26T12:48:40.288Z,32.21
2022-08-26T12:51:15.020Z,32.22
2022-08-26T12:53:43.630Z,32.08
2022-08-26T12:56:33.336Z,31.81
2022-08-26T12:59:19.726Z,32.01
2022-08-26T13:01:46.843Z,31.82
2022-08-26T13:04:46.159Z,32.06
2022-08-26T13:07:18.328Z,32.27
2022-08-26T13:09:44.721Z,32.41
2022-08-26T13:12:13.938Z,32.35
2022-08-26T13:14:40.494Z,32.23
2022-08-26T13:17:06.992Z,32.40
2022-08-26T13:19:33.407Z,32.45
2022-08-26T13:22:00.540Z,32.51
2022-08-26T13:24:33.297Z,32.55
2022-08-26T13:27:00.919Z,32.62
2022-08-26T13:29:27.420Z,32.44
2022-08-26T13:31:55.515Z,32.37
2022-08-26T13:34:23.506Z,32.23
2022-08-26T13:36:53.130Z,32.10
2022-08-26T13:39:20.064Z,31.96
2022-08-26T13:41:46.739Z,31.92
2022-08-26T13:44:13.737Z,31.87
2022-08-26T13:46:40.416Z,31.48
2022-08-26T13:49:07.206Z,31.31
2022-08-26T13:51:33.883Z,31.15
2022-08-26T13:54:00.569Z,31.08
2022-08-26T13:56:29.503Z,30.75
2022-08-26T13:58:57.219Z,30.44
2022-08-26T14:01:23.989Z,30.36
2022-08-26T14:03:50.565Z,30.46
2022-08-26T14:06:17.037Z,30.52
2022-08-26T14:08:44.510Z,30.39
2022-08-26T14:11:11.540Z,30.41
2022-08-26T14:13:39.144Z,30.45
2022-08-26T14:16:10.563Z,30.61
2022-08-26T14:18:43.661Z,30.74
2022-08-26T14:21:13.139Z,30.83
2022-08-26T14:23:40.217Z,30.89
2022-08-26T14:26:08.286Z,30.93
2022-08-26T14:28:35.439Z,31.03
2022-08-26T14:31:03.022Z,31.09
2022-08-26T14:33:32.651Z,31.09
2022-08-26T14:36:20.356Z,31.20
2022-08-26T14:38:46.918Z,31.16
2022-08-26T14:41:16.367Z,31.05
2022-08-26T14:43:49.531Z,30.97
2022-08-26T14:46:18.436Z,30.81
2022-08-26T14:48:44.924Z,30.75
2022-08-26T14:51:11.717Z,30.62
2022-08-26T14:53:56.764Z,30.43
2022-08-26T14:56:24.144Z,30.38
2022-08-26T14:58:50.638Z,30.44
2022-08-26T15:01:17.062Z,30.31
2022-08-26T15:03:43.749Z,30.24
2022-08-26T15:06:10.945Z,29.69
2022-08-26T15:08:38.138Z,29.56
2022-08-26T15:11:04.636Z,29.50
2022-08-26T15:13:31.066Z,29.41
2022-08-26T15:15:57.592Z,29.29
2022-08-26T15:18:24.116Z,29.03
2022-08-26T15:20:50.512Z,28.98
2022-08-26T15:23:17.012Z,28.87
2022-08-26T15:25:44.750Z,28.80
2022-08-26T15:28:11.351Z,28.77
2022-08-26T15:30:38.410Z,28.73
2022-08-26T15:33:04.895Z,28.69
2022-08-26T15:35:32.924Z,28.67
2022-08-26T15:38:02.034Z,28.58
2022-08-26T15:40:28.553Z,28.43
2022-08-26T15:43:06.117Z,28.38
2022-08-26T15:45:41.719Z,28.39
2022-08-26T15:48:08.135Z,28.41
2022-08-26T15:50:34.710Z,28.37
2022-08-26T15:53:01.448Z,28.11
2022-08-26T15:55:28.316Z,28.11
2022-08-26T15:57:54.798Z,27.97
2022-08-26T16:00:21.431Z,27.83
2022-08-26T16:02:48.268Z,27.75
2022-08-26T16:05:14.741Z,27.89
2022-08-26T16:07:41.171Z,27.91
2022-08-26T16:10:08.009Z,27.87
2022-08-26T16:12:34.424Z,27.62
2022-08-26T16:15:01.007Z,27.51
2022-08-26T16:17:27.624Z,27.45
2022-08-26T16:19:54.161Z,27.49
2022-08-26T16:22:20.589Z,27.54
2022-08-26T16:24:48.701Z,27.50
2022-08-26T16:27:15.991Z,27.53
2022-08-26T16:29:42.468Z,27.62
2022-08-26T16:32:09.130Z,27.65
2022-08-26T16:34:36.163Z,27.60
2022-08-26T16:37:02.643Z,27.60
2022-08-26T16:39:29.037Z,27.51
2022-08-26T16:41:55.687Z,27.48
2022-08-26T16:44:22.359Z,27.46
2022-08-26T16:46:48.938Z,27.44
2022-08-26T16:49:15.423Z,27.41
2022-08-26T16:51:41.846Z,27.30
2022-08-26T16:54:08.796Z,26.86
2022-08-26T16:56:36.227Z,26.30
2022-08-26T16:59:04.867Z,25.58
2022-08-26T17:01:31.893Z,24.91
2022-08-26T17:03:58.436Z,24.30
2022-08-26T17:06:24.864Z,24.14
2022-08-26T17:08:53.010Z,23.79
2022-08-26T17:11:19.673Z,23.77
2022-08-26T17:13:46.271Z,23.17
2022-08-26T17:16:14.413Z,22.96
2022-08-26T17:18:41.487Z,22.96
2022-08-26T17:21:11.769Z,22.82
2022-08-26T17:23:39.578Z,22.50
2022-08-26T17:26:06.169Z,22.44
2022-08-26T17:28:33.401Z,22.32
2022-08-26T17:31:01.077Z,22.06
2022-08-26T17:33:28.623Z,21.94
2022-08-26T17:35:55.551Z,22.03
2022-08-26T17:38:22.697Z,21.96
2022-08-26T17:40:49.729Z,21.81
2022-08-26T17:43:17.176Z,21.83
2022-08-26T17:45:43.943Z,21.92
2022-08-26T17:48:11.165Z,22.01
2022-08-26T17:50:39.619Z,22.02
2022-08-26T17:53:06.049Z,22.16
2022-08-26T17:55:32.547Z,22.20
2022-08-26T17:57:59.835Z,22.19
2022-08-26T18:00:30.428Z,22.22
2022-08-26T18:02:56.887Z,22.06
2022-08-26T18:05:23.397Z,21.67
2022-08-26T18:07:50.042Z,21.51
2022-08-26T18:10:18.703Z,21.15
2022-08-26T18:12:45.844Z,20.82
2022-08-26T18:15:14.507Z,20.57
2022-08-26T18:17:41.698Z,20.58
2022-08-26T18:20:15.563Z,20.68
2022-08-26T18:22:43.608Z,20.57
2022-08-26T18:25:12.232Z,20.48
2022-08-26T18:27:39.288Z,20.42
2022-08-26T18:30:14.578Z,20.48
2022-08-26T18:32:42.909Z,20.40
2022-08-26T18:35:10.578Z,20.43
2022-08-26T18:37:37.502Z,20.29
2022-08-26T18:40:06.056Z,20.25
2022-08-26T18:42:32.801Z,19.93
2022-08-26T18:44:59.208Z,19.34
2022-08-26T18:47:25.627Z,19.10
2022-08-26T18:49:52.127Z,18.81
2022-08-26T18:52:18.608Z,18.76
2022-08-26T18:54:45.012Z,18.78
2022-08-26T18:57:12.085Z,18.74
2022-08-26T18:59:38.607Z,18.83
2022-08-26T19:02:05.301Z,18.87
2022-08-26T19:04:31.801Z,18.97
2022-08-26T19:06:58.301Z,19.05
2022-08-26T19:09:26.348Z,19.11
2022-08-26T19:11:53.770Z,19.24
2022-08-26T19:14:20.353Z,19.28
2022-08-26T19:16:49.625Z,19.31
2022-08-26T19:19:16.363Z,19.40
2022-08-26T19:21:43.187Z,19.50
2022-08-26T19:24:15.381Z,19.50
2022-08-26T19:26:44.059Z,19.56
2022-08-26T19:29:11.422Z,19.61
2022-08-26T19:31:37.875Z,19.70
2022-08-26T19:34:05.302Z,19.68
2022-08-26T19:36:32.528Z,19.74
2022-08-26T19:39:00.123Z,19.87
2022-08-26T19:41:37.492Z,19.89
2022-08-26T19:44:08.209Z,20.00
2022-08-26T19:46:35.889Z,20.01
2022-08-26T19:49:02.624Z,19.91
2022-08-26T19:51:32.398Z,20.00
2022-08-26T19:54:00.766Z,20.09
2022-08-26T19:56:28.038Z,19.99
2022-08-26T19:58:55.510Z,19.91
2022-08-26T20:01:22.543Z,19.79
2022-08-26T20:03:49.391Z,19.82
2022-08-26T20:06:16.927Z,19.81
2022-08-26T20:08:44.534Z,19.84
2022-08-26T20:11:15.120Z,20.02
2022-08-26T20:13:42.560Z,20.11
2022-08-26T20:16:11.848Z,20.11
2022-08-26T20:18:59.082Z,20.02
2022-08-26T20:21:29.298Z,20.14
2022-08-26T20:24:01.668Z,20.19
2022-08-26T20:26:30.591Z,20.10
2022-08-26T20:28:58.036Z,20.05
2022-08-26T20:31:26.223Z,20.03
2022-08-26T20:33:53.563Z,19.96
2022-08-26T20:36:22.528Z,20.06
2022-08-26T20:38:50.087Z,20.01
2022-08-26T20:41:17.127Z,20.08
2022-08-26T20:43:44.304Z,20.16
2022-08-26T20:46:17.351Z,20.18
2022-08-26T20:48:45.642Z,20.16
2022-08-26T20:51:12.268Z,20.24
2022-08-26T20:53:38.748Z,20.16
2022-08-26T20:56:07.459Z,20.14
2022-08-26T20:58:34.742Z,20.15
2022-08-26T21:01:05.301Z,20.23
2022-08-26T21:03:33.975Z,20.16
2022-08-26T21:06:01.418Z,20.20
2022-08-26T21:08:27.808Z,20.15
2022-08-26T21:10:54.219Z,20.14
2022-08-26T21:13:20.664Z,20.39
2022-08-26T21:15:47.051Z,20.16
2022-08-26T21:18:13.510Z,19.93
2022-08-26T21:20:39.997Z,19.89
2022-08-26T21:23:06.425Z,19.86
2022-08-26T21:25:32.860Z,19.71
2022-08-26T21:27:59.347Z,19.68
2022-08-26T21:30:25.780Z,19.65
2022-08-26T21:32:52.285Z,19.69
2022-08-26T21:35:18.701Z,19.66
2022-08-26T21:37:45.145Z,19.69
2022-08-26T21:40:11.899Z,19.79
2022-08-26T21:42:38.529Z,19.82
2022-08-26T21:45:05.860Z,19.88
2022-08-26T21:47:32.642Z,19.95
2022-08-26T21:49:59.311Z,19.91
2022-08-26T21:52:26.343Z,20.00
2022-08-26T21:54:57.090Z,20.01
2022-08-26T21:57:23.511Z,19.97
2022-08-26T21:59:50.166Z,19.91
2022-08-26T22:02:16.655Z,19.91
2022-08-26T22:04:48.576Z,19.84
2022-08-26T22:07:17.307Z,19.78
2022-08-26T22:09:44.517Z,19.71
2022-08-26T22:12:12.323Z,19.70
2022-08-26T22:14:39.726Z,19.58
2022-08-26T22:17:06.285Z,19.59
2022-08-26T22:19:32.747Z,19.50
2022-08-26T22:22:01.341Z,19.43
2022-08-26T22:24:27.805Z,19.48
2022-08-26T22:26:55.620Z,19.49
2022-08-26T22:29:22.608Z,19.54
2022-08-26T22:31:49.155Z,19.53
2022-08-26T22:34:23.763Z,19.54
2022-08-26T22:36:50.471Z,19.57
2022-08-26T22:39:20.917Z,19.52
2022-08-26T22:41:48.761Z,19.57
2022-08-26T22:44:17.523Z,19.65
2022-08-26T22:46:45.210Z,19.72
2022-08-26T22:49:16.319Z,19.65
2022-08-26T22:51:43.863Z,19.53
2022-08-26T22:54:10.623Z,19.37
2022-08-26T22:56:37.171Z,19.18
2022-08-26T22:59:05.036Z,19.10
2022-08-26T23:01:35.610Z,19.14
2022-08-26T23:04:02.770Z,19.14
2022-08-26T23:06:29.255Z,19.21
2022-08-26T23:08:55.780Z,19.23
2022-08-26T23:11:22.793Z,19.20
2022-08-26T23:13:49.216Z,19.21
2022-08-26T23:16:15.728Z,19.26
2022-08-26T23:18:42.374Z,19.21
2022-08-26T23:21:10.546Z,19.37
2022-08-26T23:23:38.303Z,19.43
2022-08-26T23:26:06.896Z,19.50
2022-08-26T23:28:34.924Z,19.51
2022-08-26T23:31:01.384Z,19.44
2022-08-26T23:33:47.795Z,19.39
2022-08-26T23:36:17.863Z,19.45
2022-08-26T23:38:44.935Z,19.49
2022-08-26T23:41:19.072Z,19.56
2022-08-26T23:43:45.530Z,19.48
2022-08-26T23:46:12.018Z,19.51
2022-08-26T23:48:38.580Z,19.53
2022-08-26T23:51:23.822Z,19.37
2022-08-26T23:53:50.362Z,19.24
2022-08-26T23:56:18.143Z,19.19
2022-08-26T23:58:45.526Z,19.18
